Time;durP1;ratioP1;P1;durP2;ratioP2;P2;SDS_P1;SDS_P2;PMS_P1;PMS_P2;Temp;Humidity;BMP_temperature;BMP_pressure;BME280_temperature;BME280_humidity;BME280_pressure;Samples;Min_cycle;Max_cycle;Signal;HPM_P1;HPM_P2
2022/04/18 00:00:04;;;;;;;7.63;3.10;;;6.20;72.80;;;;;;5097070;28;20020;-52
2022/04/18 00:02:34;;;;;;;10.95;4.85;;;6.20;75.30;;;;;;5096570;28;20040;-52
2022/04/18 00:05:00;;;;;;;7.57;3.20;;;6.10;75.20;;;;;;5096926;28;20028;-52
2022/04/18 00:07:26;;;;;;;12.77;3.58;;;6.10;76.40;;;;;;5096846;28;20105;-52
2022/04/18 00:09:52;;;;;;;19.52;5.03;;;6.00;77.20;;;;;;5096893;28;20059;-52
2022/04/18 00:12:19;;;;;;;40.22;10.63;;;5.90;79.90;;;;;;5096627;28;20024;-52
2022/04/18 00:14:46;;;;;;;48.63;12.20;;;5.80;78.80;;;;;;5096927;28;20028;-52
2022/04/18 00:17:12;;;;;;;20.40;6.18;;;5.80;82.30;;;;;;5096612;28;20111;-52
2022/04/18 00:19:38;;;;;;;13.13;3.83;;;5.70;89.00;;;;;;5096586;28;20055;-52
2022/04/18 00:22:06;;;;;;;6.90;2.72;;;5.50;88.30;;;;;;5096612;28;20059;-52
2022/04/18 00:24:32;;;;;;;9.90;3.58;;;5.40;86.20;;;;;;5096452;28;20109;-52
2022/04/18 00:27:00;;;;;;;6.80;2.60;;;5.40;86.50;;;;;;5096469;28;20020;-52
2022/04/18 00:29:26;;;;;;;13.27;4.32;;;5.40;92.40;;;;;;5096417;28;20051;-51
2022/04/18 00:31:53;;;;;;;29.45;9.73;;;5.30;94.90;;;;;;5096390;28;20028;-51
2022/04/18 00:34:19;;;;;;;37.83;11.50;;;5.20;96.30;;;;;;5096455;28;20028;-51
2022/04/18 00:36:45;;;;;;;15.70;5.43;;;5.10;99.90;;;;;;5096341;28;20435;-51
2022/04/18 00:39:11;;;;;;;12.70;4.10;;;4.90;98.50;;;;;;5096343;28;20056;-52
2022/04/18 00:41:38;;;;;;;4.85;2.28;;;4.90;99.40;;;;;;5094797;28;20032;-52
2022/04/18 00:44:05;;;;;;;31.38;10.40;;;4.90;99.10;;;;;;5096218;28;20024;-52
2022/04/18 00:46:31;;;;;;;17.20;6.28;;;4.80;99.90;;;;;;5096109;28;20032;-52
2022/04/18 00:48:57;;;;;;;26.73;8.80;;;4.60;99.90;;;;;;5094655;28;20546;-51
2022/04/18 00:51:25;;;;;;;25.45;10.10;;;4.60;99.90;;;;;;5077784;28;20042;-51
2022/04/18 00:53:54;;;;;;;18.92;7.75;;;4.60;99.90;;;;;;5095956;28;20040;-51
2022/04/18 00:56:20;;;;;;;26.42;9.00;;;4.50;99.90;;;;;;5095999;28;20362;-51
2022/04/18 00:58:48;;;;;;;19.98;7.68;;;4.50;99.90;;;;;;5095978;28;20024;-51
2022/04/18 01:01:15;;;;;;;17.13;6.38;;;4.30;99.90;;;;;;5095670;28;20050;-51
2022/04/18 01:03:45;;;;;;;15.02;5.85;;;4.20;99.90;;;;;;5077804;28;20666;-51
2022/04/18 01:06:13;;;;;;;13.50;6.22;;;4.20;99.90;;;;;;5094503;28;20050;-51
2022/04/18 01:08:39;;;;;;;16.80;7.22;;;4.10;99.90;;;;;;5077602;28;20061;-51
2022/04/18 01:11:09;;;;;;;22.35;8.18;;;4.10;99.90;;;;;;5095666;28;20031;-51
2022/04/18 01:14:02;;;;;;;17.05;7.85;;;4.00;99.90;;;;;;5071732;28;20036;-51
2022/04/18 01:17:04;;;;;;;17.63;7.10;;;3.90;99.90;;;;;;5013079;28;20058;-51
2022/04/18 01:19:30;;;;;;;18.17;6.18;;;3.70;99.90;;;;;;5078329;28;20473;-52
2022/04/18 01:22:20;;;;;;;12.35;5.43;;;3.60;99.90;;;;;;5056788;28;20036;-51
2022/04/18 01:30:27;;;;;;;14.80;5.70;;;3.40;99.90;;;;;;5077109;28;20036;-51
2022/04/18 01:32:53;;;;;;;12.70;5.82;;;3.30;99.90;;;;;;5095493;28;20036;-51
2022/04/18 01:35:20;;;;;;;19.38;6.57;;;3.30;99.90;;;;;;5093900;28;20670;-51
2022/04/18 01:37:46;;;;;;;14.18;5.43;;;3.10;99.90;;;;;;5076998;28;20592;-51
2022/04/18 01:40:15;;;;;;;12.10;5.10;;;3.10;99.90;;;;;;5077030;28;20026;-51
2022/04/18 01:42:41;;;;;;;15.77;6.28;;;3.10;99.90;;;;;;5093704;28;20459;-51
2022/04/18 01:45:09;;;;;;;13.57;5.55;;;3.00;99.90;;;;;;5094946;28;20050;-51
2022/04/18 01:47:35;;;;;;;14.20;5.78;;;3.00;99.90;;;;;;5093841;28;20025;-51
2022/04/18 01:50:02;;;;;;;14.63;5.75;;;2.90;99.90;;;;;;5095000;28;20020;-51
2022/04/18 01:52:29;;;;;;;11.30;4.78;;;2.80;99.90;;;;;;5093634;28;20038;-51
2022/04/18 01:54:57;;;;;;;15.48;5.72;;;2.70;99.90;;;;;;5093860;28;20039;-51
2022/04/18 01:57:23;;;;;;;13.15;5.53;;;2.60;99.90;;;;;;5076768;28;20024;-51
2022/04/18 01:59:49;;;;;;;12.70;4.88;;;2.60;99.90;;;;;;5093392;28;20114;-51
2022/04/18 02:02:16;;;;;;;10.35;4.95;;;2.50;99.90;;;;;;5092825;28;20028;-51
2022/04/18 02:04:42;;;;;;;9.52;4.72;;;2.40;99.90;;;;;;5093449;28;20024;-51
2022/04/18 02:07:11;;;;;;;12.68;4.72;;;2.40;99.90;;;;;;5093506;28;20032;-51
2022/04/18 02:09:39;;;;;;;13.75;5.70;;;2.40;99.90;;;;;;5076730;28;20020;-51
2022/04/18 02:12:08;;;;;;;10.25;4.60;;;2.40;99.90;;;;;;5093266;28;20028;-51
2022/04/18 02:14:48;;;;;;;13.38;5.20;;;2.30;99.90;;;;;;5093317;28;20043;-52
2022/04/18 02:17:14;;;;;;;12.40;5.43;;;2.30;99.90;;;;;;5076515;28;20052;-51
2022/04/18 02:19:40;;;;;;;6.90;3.70;;;2.30;99.90;;;;;;5093216;28;20035;-51
2022/04/18 02:22:06;;;;;;;8.57;4.10;;;2.20;99.90;;;;;;5076407;28;20094;-51
2022/04/18 02:24:32;;;;;;;14.73;5.18;;;2.20;99.90;;;;;;5094673;28;20051;-51
2022/04/18 02:26:58;;;;;;;9.55;4.47;;;2.10;99.90;;;;;;5094495;28;20039;-51
2022/04/18 02:29:24;;;;;;;8.45;4.18;;;2.10;99.90;;;;;;5093273;28;20035;-51
2022/04/18 02:34:35;;;;;;;14.48;6.32;;;2.10;99.90;;;;;;5076324;28;20508;-51
2022/04/18 02:37:01;;;;;;;10.20;5.53;;;2.10;99.90;;;;;;5093086;28;20089;-51
2022/04/18 02:39:31;;;;;;;14.13;6.25;;;2.00;99.90;;;;;;5076292;28;20111;-51
2022/04/18 02:41:57;;;;;;;10.88;5.82;;;2.00;99.90;;;;;;5094171;28;20024;-51
2022/04/18 02:44:28;;;;;;;11.53;5.53;;;2.00;99.90;;;;;;5093167;28;20024;-51
2022/04/18 02:46:54;;;;;;;16.73;6.50;;;1.80;99.90;;;;;;5094626;28;20333;-51
2022/04/18 02:49:21;;;;;;;11.65;5.50;;;1.80;99.90;;;;;;5092935;28;20039;-51
2022/04/18 02:51:47;;;;;;;16.15;6.50;;;1.80;99.90;;;;;;5076210;28;20097;-51
2022/04/18 02:54:17;;;;;;;14.30;5.95;;;1.70;99.90;;;;;;5093075;28;20032;-51
2022/04/18 02:56:44;;;;;;;15.30;6.68;;;1.70;99.90;;;;;;5092924;28;20058;-51
2022/04/18 02:59:10;;;;;;;16.20;6.70;;;1.60;99.90;;;;;;5093085;28;20121;-51
2022/04/18 03:01:37;;;;;;;15.00;6.95;;;1.60;99.90;;;;;;5092737;28;20060;-51
2022/04/18 03:04:04;;;;;;;18.67;7.60;;;1.50;99.90;;;;;;5094221;28;20492;-51
2022/04/18 03:06:31;;;;;;;18.02;8.05;;;1.40;99.90;;;;;;5092899;28;20024;-51
2022/04/18 03:08:56;;;;;;;15.90;7.70;;;1.40;99.90;;;;;;5075988;28;20024;-51
2022/04/18 03:11:22;;;;;;;16.85;7.45;;;1.30;99.90;;;;;;5092830;28;20033;-51
2022/04/18 03:13:48;;;;;;;21.23;8.52;;;1.30;99.90;;;;;;5077461;28;20035;-51
2022/04/18 03:16:34;;;;;;;18.20;8.05;;;1.20;99.90;;;;;;5096362;28;20121;-52
2022/04/18 03:19:00;;;;;;;20.88;8.25;;;1.20;99.90;;;;;;5079824;28;20035;-51
2022/04/18 03:21:27;;;;;;;21.13;9.40;;;1.20;99.90;;;;;;5096633;28;20027;-51
2022/04/18 03:23:56;;;;;;;26.02;9.32;;;1.30;99.90;;;;;;5096261;28;20028;-51
2022/04/18 03:26:33;;;;;;;21.77;8.65;;;1.30;99.90;;;;;;5096469;28;20367;-51
2022/04/18 03:29:19;;;;;;;24.73;9.52;;;1.20;99.90;;;;;;5097330;28;20024;-51
2022/04/18 03:31:45;;;;;;;28.15;9.38;;;1.20;99.90;;;;;;5097602;28;20058;-51
2022/04/18 03:34:13;;;;;;;32.25;10.00;;;1.20;99.90;;;;;;5096398;28;20049;-51
2022/04/18 03:42:09;;;;;;;30.58;11.25;;;1.10;99.90;;;;;;5096288;28;20027;-51
2022/04/18 03:44:46;;;;;;;29.65;10.80;;;1.00;99.90;;;;;;5095921;28;20028;-51
2022/04/18 03:47:14;;;;;;;25.10;11.20;;;1.00;99.90;;;;;;5097404;28;20028;-51
2022/04/18 03:49:41;;;;;;;26.10;10.70;;;1.00;99.90;;;;;;5079158;28;20031;-51
2022/04/18 03:52:08;;;;;;;29.90;12.07;;;1.00;99.90;;;;;;5097122;28;20035;-51
2022/04/18 03:54:35;;;;;;;31.35;11.52;;;0.90;99.90;;;;;;5079025;28;20036;-51
2022/04/18 03:57:03;;;;;;;26.77;11.23;;;0.90;99.90;;;;;;5095910;28;20389;-51
2022/04/18 03:59:46;;;;;;;25.60;11.05;;;0.80;99.90;;;;;;5078640;28;20089;-51
2022/04/18 04:02:13;;;;;;;34.38;11.63;;;0.80;99.90;;;;;;5095613;28;20059;-51
2022/04/18 04:04:44;;;;;;;33.67;12.57;;;0.80;99.90;;;;;;5096932;28;20477;-51
2022/04/18 04:07:11;;;;;;;31.67;12.43;;;0.70;99.90;;;;;;5095825;28;20490;-51
2022/04/18 04:09:38;;;;;;;32.95;11.68;;;0.80;99.90;;;;;;5078812;28;20055;-51
2022/04/18 04:12:06;;;;;;;25.58;10.95;;;0.80;99.90;;;;;;5095466;28;20489;-51
2022/04/18 04:14:42;;;;;;;27.85;11.55;;;0.80;99.90;;;;;;5078411;28;20038;-51
2022/04/18 04:17:08;;;;;;;25.52;13.05;;;0.80;99.90;;;;;;5095129;28;20048;-51
2022/04/18 04:19:36;;;;;;;26.27;12.88;;;0.80;99.90;;;;;;5095321;28;20071;-51
2022/04/18 04:22:11;;;;;;;26.40;11.95;;;0.80;99.90;;;;;;5078349;28;20547;-51
2022/04/18 04:24:41;;;;;;;30.77;12.80;;;0.70;99.90;;;;;;5077976;28;20024;-51
2022/04/18 04:27:07;;;;;;;30.50;12.85;;;0.70;99.90;;;;;;5094918;28;20051;-51
2022/04/18 04:29:33;;;;;;;34.25;12.70;;;0.80;99.90;;;;;;5096376;28;20024;-51
2022/04/18 04:32:03;;;;;;;24.42;12.68;;;0.80;99.90;;;;;;5078382;28;20024;-51
2022/04/18 04:34:32;;;;;;;45.80;19.23;;;0.80;99.90;;;;;;5077952;28;20028;-51
2022/04/18 04:37:20;;;;;;;42.38;16.77;;;0.90;99.90;;;;;;5077936;28;20107;-51
2022/04/18 04:39:50;;;;;;;47.92;16.98;;;1.00;99.90;;;;;;5078121;28;20051;-51
2022/04/18 04:42:17;;;;;;;44.83;18.17;;;1.10;99.90;;;;;;5095591;28;20028;-51
2022/04/18 04:44:44;;;;;;;47.00;17.65;;;1.20;99.90;;;;;;5096340;28;20028;-51
2022/04/18 04:47:14;;;;;;;53.72;20.00;;;1.30;99.90;;;;;;5077790;28;20608;-51
2022/04/18 04:49:40;;;;;;;62.80;24.05;;;1.40;99.90;;;;;;5077632;28;20632;-51
2022/04/18 04:52:21;;;;;;;61.10;23.08;;;1.50;99.90;;;;;;5077894;28;20176;-51
2022/04/18 04:54:49;;;;;;;55.10;19.63;;;1.80;99.90;;;;;;5077616;28;20093;-51
2022/04/18 04:57:21;;;;;;;45.90;16.45;;;1.90;99.90;;;;;;5077601;28;20032;-51
2022/04/18 05:00:06;;;;;;;37.45;13.35;;;1.90;99.90;;;;;;5095819;28;20047;-51
2022/04/18 05:02:55;;;;;;;35.20;11.80;;;2.10;99.90;;;;;;5095456;28;20055;-51
2022/04/18 05:05:21;;;;;;;38.83;13.30;;;2.20;99.90;;;;;;5077253;28;20024;-51
2022/04/18 05:07:47;;;;;;;38.13;15.50;;;2.40;99.90;;;;;;5077170;28;20118;-51
2022/04/18 05:10:16;;;;;;;39.67;12.20;;;2.50;99.90;;;;;;5077287;28;20329;-51
2022/04/18 05:12:42;;;;;;;27.25;11.05;;;2.60;99.90;;;;;;5095437;28;20474;-51
2022/04/18 05:15:08;;;;;;;28.00;10.77;;;2.70;99.90;;;;;;5076355;28;20038;-52
2022/04/18 05:17:54;;;;;;;31.88;12.70;;;2.80;99.90;;;;;;5060161;28;20076;-51
2022/04/18 05:20:21;;;;;;;25.65;11.57;;;2.90;99.90;;;;;;5051615;28;20059;-51
2022/04/18 05:22:47;;;;;;;32.72;14.85;;;3.00;99.90;;;;;;5058486;28;20021;-51
2022/04/18 05:25:16;;;;;;;34.17;15.40;;;3.00;99.90;;;;;;5059112;28;20025;-53
2022/04/18 05:27:45;;;;;;;32.78;14.43;;;3.10;99.90;;;;;;5045904;28;20075;-51
2022/04/18 05:30:27;;;;;;;32.65;14.65;;;3.30;99.90;;;;;;5037898;28;20558;-51
2022/04/18 05:32:56;;;;;;;39.63;16.33;;;3.40;99.90;;;;;;5069250;28;20065;-52
2022/04/18 05:35:22;;;;;;;51.53;17.02;;;3.50;99.90;;;;;;5091914;28;20480;-52
2022/04/18 05:37:48;;;;;;;48.25;18.65;;;3.70;99.90;;;;;;5075780;28;20024;-52
2022/04/18 05:40:26;;;;;;;49.78;19.58;;;3.80;99.90;;;;;;5072403;28;20020;-52
2022/04/18 05:42:54;;;;;;;50.65;18.52;;;4.10;99.90;;;;;;5086220;28;20030;-52
2022/04/18 05:45:20;;;;;;;42.13;17.02;;;4.20;99.90;;;;;;5082424;28;20460;-52
2022/04/18 05:47:54;;;;;;;47.80;16.60;;;4.40;99.90;;;;;;5077492;28;20028;-52
2022/04/18 05:50:21;;;;;;;44.90;16.10;;;4.70;99.90;;;;;;5075706;28;20053;-52
2022/04/18 05:53:07;;;;;;;35.13;15.25;;;4.90;99.90;;;;;;5079744;28;20032;-52
2022/04/18 05:55:57;;;;;;;47.10;17.35;;;5.10;99.90;;;;;;5082740;28;20029;-52
2022/04/18 05:58:43;;;;;;;39.45;15.52;;;5.50;99.90;;;;;;5084473;28;20056;-52
2022/04/18 06:01:24;;;;;;;39.85;15.15;;;5.70;99.90;;;;;;5072728;28;20024;-52
2022/04/18 06:03:54;;;;;;;34.03;15.80;;;5.90;99.90;;;;;;5073192;28;20371;-52
2022/04/18 06:06:21;;;;;;;29.80;14.18;;;6.20;99.80;;;;;;5083853;28;20028;-52
2022/04/18 06:08:47;;;;;;;29.35;14.77;;;6.40;98.70;;;;;;5081112;28;20607;-52
2022/04/18 06:11:19;;;;;;;40.97;15.10;;;6.70;97.30;;;;;;5072717;28;20062;-52
2022/04/18 06:13:51;;;;;;;30.98;14.40;;;6.90;94.40;;;;;;5082962;28;20028;-52
2022/04/18 06:16:17;;;;;;;29.88;14.05;;;7.10;94.20;;;;;;5104647;27;20024;-52
2022/04/18 06:18:46;;;;;;;48.63;16.35;;;7.20;94.10;;;;;;5093141;28;20056;-52
2022/04/18 06:21:13;;;;;;;31.73;13.10;;;7.40;95.30;;;;;;5083536;28;20538;-52
2022/04/18 06:23:41;;;;;;;15.02;6.40;;;7.50;91.80;;;;;;5078870;28;20107;-52
2022/04/18 06:26:26;;;;;;;15.15;6.07;;;7.70;86.30;;;;;;5085681;28;20035;-52
2022/04/18 06:28:53;;;;;;;11.05;5.28;;;7.90;83.20;;;;;;5073540;28;20078;-52
2022/04/18 06:31:19;;;;;;;11.13;5.95;;;8.00;83.60;;;;;;5080233;28;20096;-52
2022/04/18 06:33:54;;;;;;;11.88;5.25;;;7.90;81.70;;;;;;5080043;28;20050;-52
2022/04/18 06:36:21;;;;;;;10.13;5.57;;;8.20;82.10;;;;;;5076145;28;20032;-52
2022/04/18 06:38:58;;;;;;;24.70;6.65;;;8.30;76.20;;;;;;5081282;28;20024;-52
2022/04/18 06:41:27;;;;;;;16.45;5.55;;;8.50;73.10;;;;;;5083329;28;20056;-52
2022/04/18 06:43:54;;;;;;;25.50;6.97;;;8.80;68.50;;;;;;5100630;28;20332;-53
2022/04/18 06:46:20;;;;;;;15.38;6.50;;;9.10;71.70;;;;;;5083718;28;20052;-52
2022/04/18 06:49:01;;;;;;;9.05;5.28;;;9.00;73.10;;;;;;5070815;28;20024;-52
2022/04/18 06:52:02;;;;;;;20.02;6.05;;;9.40;68.10;;;;;;5085259;28;20036;-52
2022/04/18 06:55:09;;;;;;;16.52;6.53;;;9.80;64.40;;;;;;5019207;28;20378;-52
2022/04/18 06:57:38;;;;;;;15.13;6.43;;;9.90;60.10;;;;;;5011936;28;20029;-52
2022/04/18 07:00:12;;;;;;;19.05;7.90;;;10.00;61.40;;;;;;5009129;28;20435;-52
2022/04/18 07:02:45;;;;;;;18.60;7.35;;;10.10;68.40;;;;;;5040301;28;20029;-53
2022/04/18 07:05:12;;;;;;;14.55;6.43;;;10.00;62.70;;;;;;5020216;28;20029;-52
2022/04/18 07:07:38;;;;;;;13.27;6.07;;;10.10;63.00;;;;;;5038857;28;21030;-53
2022/04/18 07:10:04;;;;;;;21.58;8.38;;;10.30;58.40;;;;;;5047853;28;20053;-52
2022/04/18 07:12:31;;;;;;;23.13;9.40;;;10.40;65.60;;;;;;5015607;28;20048;-52
2022/04/18 07:14:59;;;;;;;28.55;10.30;;;10.40;57.90;;;;;;5027568;28;20022;-53
2022/04/18 07:17:26;;;;;;;26.60;10.07;;;10.30;57.20;;;;;;5033616;28;20119;-53
2022/04/18 07:19:54;;;;;;;9.63;5.05;;;10.40;58.20;;;;;;5011986;28;20042;-52
2022/04/18 07:22:31;;;;;;;11.07;5.07;;;10.90;54.10;;;;;;5010931;28;20483;-52
2022/04/18 07:24:59;;;;;;;21.48;8.02;;;10.70;54.20;;;;;;5026043;28;20032;-52
2022/04/18 07:27:30;;;;;;;10.85;4.25;;;11.10;55.80;;;;;;5083016;28;20438;-52
2022/04/18 07:30:01;;;;;;;9.40;4.78;;;11.40;53.70;;;;;;5077429;28;20031;-52
2022/04/18 07:32:28;;;;;;;13.50;6.35;;;11.80;50.60;;;;;;5082596;28;20028;-52
2022/04/18 07:35:03;;;;;;;15.38;6.65;;;12.10;51.20;;;;;;5064256;28;20058;-53
2022/04/18 07:40:49;;;;;;;12.32;3.65;;;12.10;47.60;;;;;;5088791;28;20051;-62
2022/04/18 07:43:21;;;;;;;14.85;4.28;;;12.20;47.00;;;;;;5085148;28;20381;-61
2022/04/18 07:45:48;;;;;;;10.90;4.32;;;12.50;48.20;;;;;;5084435;28;20020;-61
2022/04/18 07:48:14;;;;;;;8.55;3.67;;;12.70;45.80;;;;;;5086395;28;20032;-61
2022/04/18 07:53:29;;;;;;;14.30;4.80;;;12.50;47.10;;;;;;5081279;28;20024;-62
2022/04/18 07:55:56;;;;;;;4.68;2.72;;;12.70;47.10;;;;;;5082987;28;20028;-61
2022/04/18 07:58:23;;;;;;;6.85;3.10;;;13.10;45.50;;;;;;5073279;28;20028;-61
2022/04/18 08:00:49;;;;;;;18.75;4.50;;;13.20;45.10;;;;;;5062700;28;20558;-62
2022/04/18 08:03:17;;;;;;;9.98;3.95;;;13.60;46.60;;;;;;5084654;28;20067;-62
2022/04/18 08:05:50;;;;;;;6.72;3.53;;;14.00;43.00;;;;;;5069385;28;20047;-62
2022/04/18 08:08:21;;;;;;;5.57;2.33;;;14.20;42.70;;;;;;5069370;28;20377;-62
2022/04/18 08:10:47;;;;;;;4.47;2.55;;;14.80;41.60;;;;;;5090443;28;20060;-62
2022/04/18 08:13:13;;;;;;;6.22;2.17;;;15.10;37.90;;;;;;5087756;28;20024;-61
2022/04/18 08:15:39;;;;;;;9.45;3.33;;;14.80;37.40;;;;;;5076291;28;20041;-61
2022/04/18 08:18:28;;;;;;;9.75;3.05;;;15.30;38.00;;;;;;5088731;28;20036;-62
2022/04/18 08:20:57;;;;;;;8.68;2.90;;;15.60;36.50;;;;;;5087658;28;20036;-62
2022/04/18 08:23:26;;;;;;;8.98;3.00;;;16.10;36.20;;;;;;5071810;28;20031;-62
2022/04/18 08:26:11;;;;;;;8.00;3.58;;;15.60;35.60;;;;;;5081772;28;20543;-62
2022/04/18 08:28:46;;;;;;;19.83;4.80;;;15.80;34.80;;;;;;5074881;28;20032;-62
2022/04/18 08:31:12;;;;;;;8.98;3.00;;;15.50;35.60;;;;;;5062974;28;20047;-62
2022/04/18 08:33:58;;;;;;;8.70;2.95;;;15.70;34.80;;;;;;5082273;28;20544;-62
2022/04/18 08:36:25;;;;;;;4.90;2.10;;;16.30;34.90;;;;;;5075222;28;20040;-62
2022/04/18 08:38:51;;;;;;;4.80;1.73;;;16.60;33.80;;;;;;5072712;28;20036;-62
2022/04/18 08:41:38;;;;;;;5.47;2.22;;;16.80;32.60;;;;;;5085821;28;20458;-62
2022/04/18 08:44:09;;;;;;;6.82;2.05;;;17.00;32.80;;;;;;5083183;28;20032;-63
2022/04/18 08:46:36;;;;;;;6.82;2.53;;;16.70;31.30;;;;;;5077330;28;20510;-63
2022/04/18 08:54:35;;;;;;;3.22;1.70;;;17.50;31.20;;;;;;5095802;28;20036;-63
2022/04/18 08:57:01;;;;;;;3.45;1.48;;;17.40;29.10;;;;;;5087045;28;20032;-62
2022/04/18 08:59:27;;;;;;;8.32;2.45;;;17.30;28.20;;;;;;5079292;28;20024;-63
2022/04/18 09:01:54;;;;;;;4.82;1.90;;;16.70;28.70;;;;;;5090460;28;20028;-63
2022/04/18 09:04:55;;;;;;;4.53;2.05;;;16.60;29.00;;;;;;5083337;28;20223;-62
2022/04/18 09:07:23;;;;;;;5.18;1.70;;;16.40;29.40;;;;;;5074093;28;20033;-63
2022/04/18 09:09:56;;;;;;;9.18;2.38;;;16.40;29.10;;;;;;5077955;28;20029;-63
2022/04/18 09:12:27;;;;;;;2.95;1.30;;;17.10;29.80;;;;;;5083855;28;20024;-63
2022/04/18 09:15:12;;;;;;;2.72;1.23;;;17.60;28.80;;;;;;5087821;28;20090;-63
2022/04/18 09:17:40;;;;;;;7.18;1.52;;;17.70;28.50;;;;;;5076756;28;20432;-62
2022/04/18 09:20:30;;;;;;;7.25;2.35;;;17.10;26.90;;;;;;5098455;28;20071;-62
2022/04/18 09:22:57;;;;;;;4.65;1.63;;;16.90;28.40;;;;;;5072073;28;20024;-63
2022/04/18 09:25:23;;;;;;;9.27;3.38;;;16.70;28.70;;;;;;5068969;28;20046;-63
2022/04/18 09:27:55;;;;;;;6.00;2.17;;;17.00;28.80;;;;;;5063307;28;20036;-63
2022/04/18 09:30:25;;;;;;;7.53;2.70;;;16.60;27.70;;;;;;5058888;28;20032;-63
2022/04/18 09:32:56;;;;;;;5.70;2.55;;;16.70;28.50;;;;;;5057467;28;20032;-63
2022/04/18 09:35:30;;;;;;;3.80;2.10;;;17.00;28.30;;;;;;5050931;28;20044;-63
2022/04/18 09:38:01;;;;;;;3.88;2.30;;;17.60;28.70;;;;;;5048027;28;20367;-63
2022/04/18 09:40:50;;;;;;;7.28;1.83;;;17.70;27.30;;;;;;5059394;28;20041;-63
2022/04/18 09:43:21;;;;;;;6.10;2.33;;;17.40;27.60;;;;;;5053701;28;20025;-63
2022/04/18 09:45:48;;;;;;;6.10;2.15;;;17.20;26.00;;;;;;5054317;28;20032;-63
2022/04/18 09:48:16;;;;;;;8.35;2.50;;;17.20;26.10;;;;;;5043450;28;20098;-63
2022/04/18 09:51:00;;;;;;;3.67;1.52;;;17.30;24.90;;;;;;5043861;28;20025;-62
2022/04/18 09:53:44;;;;;;;13.00;3.10;;;17.40;26.00;;;;;;5055097;28;20031;-63
2022/04/18 09:56:19;;;;;;;5.93;2.37;;;17.90;26.80;;;;;;5059613;28;20025;-63
2022/04/18 09:58:45;;;;;;;3.20;1.80;;;18.20;25.60;;;;;;5061006;28;20107;-63
2022/04/18 10:01:12;;;;;;;11.65;3.17;;;18.20;26.70;;;;;;5064315;28;20141;-63
2022/04/18 10:03:39;;;;;;;7.13;1.80;;;18.20;24.00;;;;;;5065289;28;20044;-63
2022/04/18 10:06:06;;;;;;;4.13;1.65;;;18.20;25.40;;;;;;5066596;28;20390;-63
2022/04/18 10:08:34;;;;;;;3.15;1.60;;;18.40;25.30;;;;;;5063107;28;20033;-63
2022/04/18 10:11:02;;;;;;;14.32;2.38;;;18.50;24.50;;;;;;5063270;28;20029;-63
2022/04/18 10:13:29;;;;;;;16.70;3.22;;;18.70;25.60;;;;;;5069390;28;20048;-64
2022/04/18 10:15:58;;;;;;;4.82;2.55;;;19.20;25.80;;;;;;5065369;28;20039;-63
2022/04/18 10:18:28;;;;;;;8.10;2.50;;;19.20;25.40;;;;;;5065712;28;20055;-63
2022/04/18 10:21:29;;;;;;;7.40;2.97;;;19.50;25.00;;;;;;5075735;28;20056;-63
2022/04/18 10:24:32;;;;;;;4.00;1.58;;;19.50;24.90;;;;;;5063762;28;20032;-63
2022/04/18 10:27:25;;;;;;;6.40;2.47;;;20.10;25.60;;;;;;5060905;28;20013;-63
2022/04/18 10:29:54;;;;;;;4.75;2.05;;;19.50;23.70;;;;;;5067728;28;20089;-63
2022/04/18 10:32:24;;;;;;;5.43;1.60;;;19.00;24.10;;;;;;5062831;28;20064;-63
2022/04/18 10:34:57;;;;;;;4.00;1.87;;;18.80;25.10;;;;;;5074870;28;20036;-62
2022/04/18 10:37:24;;;;;;;5.25;2.53;;;17.90;24.60;;;;;;5060868;28;20265;-62
2022/04/18 10:40:05;;;;;;;3.95;1.98;;;18.00;26.50;;;;;;5083778;28;20024;-63
2022/04/18 10:42:37;;;;;;;3.92;2.28;;;17.60;26.70;;;;;;5076185;28;20036;-63
2022/04/18 10:45:17;;;;;;;8.57;3.00;;;16.90;27.30;;;;;;5062274;28;20426;-62
2022/04/18 10:48:11;;;;;;;5.32;2.20;;;16.60;28.10;;;;;;5060206;28;20027;-62
2022/04/18 10:50:37;;;;;;;12.65;2.70;;;16.90;29.70;;;;;;5062304;28;20041;-63
2022/04/18 10:53:10;;;;;;;6.47;2.10;;;16.50;28.40;;;;;;5052924;28;20029;-62
2022/04/18 10:55:38;;;;;;;5.80;3.08;;;16.10;27.50;;;;;;5072746;28;20024;-62
2022/04/18 10:58:15;;;;;;;5.60;2.40;;;15.80;28.30;;;;;;5062169;28;20037;-62
2022/04/18 11:00:55;;;;;;;5.60;2.30;;;15.90;28.10;;;;;;5064592;28;20020;-62
2022/04/18 11:03:57;;;;;;;6.32;2.20;;;16.10;30.00;;;;;;5073609;28;20025;-62
2022/04/18 11:06:23;;;;;;;6.57;2.58;;;16.20;29.40;;;;;;5071552;28;20104;-62
2022/04/18 11:09:01;;;;;;;7.28;3.45;;;15.90;28.20;;;;;;5064246;28;20029;-62
2022/04/18 11:11:53;;;;;;;7.65;2.30;;;15.60;29.90;;;;;;5064234;28;20029;-62
2022/04/18 11:14:22;;;;;;;5.00;2.50;;;15.60;30.00;;;;;;5060891;28;20530;-62
2022/04/18 11:16:51;;;;;;;8.88;3.72;;;15.60;29.90;;;;;;5062354;28;20032;-62
2022/04/18 11:19:20;;;;;;;9.30;3.17;;;15.90;30.00;;;;;;5048239;28;20025;-63
2022/04/18 11:24:35;;;;;;;28.05;5.70;;;16.80;30.00;;;;;;5049955;28;20025;-63
2022/04/18 11:27:02;;;;;;;8.20;3.10;;;16.10;28.20;;;;;;5051129;28;21702;-62
2022/04/18 11:29:33;;;;;;;5.63;2.10;;;16.20;29.20;;;;;;5043988;28;20075;-62
2022/04/18 11:31:59;;;;;;;;;;;16.20;30.00;;;;;;5044451;28;20025;-62
2022/04/18 11:34:27;;;;;;;13.88;3.58;;;16.10;29.10;;;;;;5044161;28;19912;-62
2022/04/18 11:36:58;;;;;;;4.18;2.20;;;15.50;29.50;;;;;;5060157;28;20025;-62
2022/04/18 11:39:24;;;;;;;;;;;15.40;30.40;;;;;;5058171;28;20043;-61
2022/04/18 11:42:05;;;;;;;5.22;2.58;;;15.30;31.00;;;;;;5050817;28;19913;-61
2022/04/18 11:44:41;;;;;;;6.13;2.70;;;14.90;31.50;;;;;;5053907;28;20030;-61
2022/04/18 11:47:12;;;;;;;9.95;4.05;;;14.90;31.90;;;;;;5056362;28;20617;-61
2022/04/18 11:49:39;;;;;;;3.75;1.83;;;14.80;31.50;;;;;;5056070;28;20027;-61
2022/04/18 11:52:06;;;;;;;10.10;2.83;;;14.70;31.10;;;;;;5047044;28;20067;-61
2022/04/18 11:54:32;;;;;;;7.45;2.65;;;14.50;30.60;;;;;;5043279;28;20033;-61
2022/04/18 11:57:00;;;;;;;9.35;3.05;;;14.30;30.90;;;;;;5049290;28;20064;-61
2022/04/18 11:59:30;;;;;;;8.07;2.35;;;14.40;32.00;;;;;;5049602;28;20051;-61
2022/04/18 12:07:31;;;;;;;15.82;2.47;;;14.30;30.60;;;;;;5039860;28;20270;-61
2022/04/18 12:09:57;;;;;;;12.70;4.00;;;14.40;31.40;;;;;;5048333;28;20029;-61
2022/04/18 12:12:31;;;;;;;7.88;3.35;;;14.30;31.00;;;;;;5049603;28;20039;-61
2022/04/18 12:15:05;;;;;;;5.03;2.42;;;14.30;31.80;;;;;;5050033;28;20052;-61
2022/04/18 12:17:34;;;;;;;13.00;4.55;;;14.00;31.80;;;;;;5053901;28;20053;-61
2022/04/18 12:20:19;;;;;;;7.90;2.85;;;13.90;32.30;;;;;;5064875;28;20028;-61
2022/04/18 12:22:52;;;;;;;9.85;3.00;;;13.70;33.80;;;;;;5069248;28;20082;-61
2022/04/18 12:25:23;;;;;;;8.02;3.00;;;13.50;34.80;;;;;;5072125;28;20457;-61
2022/04/18 12:27:50;;;;;;;10.95;3.90;;;13.40;35.10;;;;;;5070960;28;20107;-52
2022/04/18 12:30:19;;;;;;;14.20;3.88;;;13.20;35.30;;;;;;5078033;28;20509;-53
2022/04/18 12:32:49;;;;;;;6.75;2.85;;;13.20;35.60;;;;;;5061776;28;20025;-53
2022/04/18 12:35:36;;;;;;;7.45;3.28;;;13.10;35.90;;;;;;5061165;28;20064;-52
2022/04/18 12:38:11;;;;;;;10.32;3.55;;;13.00;36.20;;;;;;5066226;28;20028;-52
2022/04/18 12:40:38;;;;;;;13.85;3.63;;;13.10;36.70;;;;;;5077886;28;20115;-54
2022/04/18 12:43:09;;;;;;;14.13;4.20;;;13.30;37.60;;;;;;5068027;28;20099;-53
2022/04/18 12:45:45;;;;;;;6.72;3.63;;;13.40;37.90;;;;;;5078192;28;20044;-53
2022/04/18 12:48:11;;;;;;;15.77;8.43;;;13.40;36.70;;;;;;5067547;28;20029;-53
2022/04/18 12:50:38;;;;;;;19.80;8.52;;;13.60;36.60;;;;;;5064158;28;20051;-52
2022/04/18 12:53:04;;;;;;;12.10;3.58;;;13.80;36.80;;;;;;5067641;28;20025;-53
2022/04/18 12:55:31;;;;;;;6.75;2.65;;;14.00;37.10;;;;;;5063888;28;20071;-53
2022/04/18 12:58:01;;;;;;;14.35;4.22;;;13.80;34.90;;;;;;5058615;28;20025;-52
2022/04/18 13:00:37;;;;;;;4.63;2.90;;;13.80;36.20;;;;;;5063977;28;20075;-53
2022/04/18 13:03:09;;;;;;;11.50;5.28;;;13.90;35.30;;;;;;5063414;28;20032;-53
2022/04/18 13:05:48;;;;;;;16.98;3.72;;;14.10;36.40;;;;;;5069792;28;20025;-53
2022/04/18 13:08:16;;;;;;;7.78;3.70;;;14.10;35.30;;;;;;5071601;28;20050;-52
2022/04/18 13:10:46;;;;;;;15.65;4.15;;;14.20;35.20;;;;;;5066917;28;20024;-53
2022/04/18 13:13:15;;;;;;;5.13;3.28;;;14.10;33.70;;;;;;5069866;28;20554;-53
2022/04/18 13:15:42;;;;;;;12.48;4.28;;;14.10;35.10;;;;;;5070548;28;20056;-53
2022/04/18 13:18:18;;;;;;;8.93;3.90;;;13.70;35.30;;;;;;5069536;28;20070;-53
2022/04/18 13:20:45;;;;;;;13.18;3.30;;;13.80;35.70;;;;;;5071802;28;20031;-53
2022/04/18 13:23:11;;;;;;;5.65;2.45;;;13.70;34.10;;;;;;5067453;28;20024;-52
2022/04/18 13:25:39;;;;;;;6.07;3.28;;;13.80;35.10;;;;;;5076733;28;20023;-53
2022/04/18 13:28:10;;;;;;;3.53;2.25;;;13.80;35.00;;;;;;5095456;28;20070;-53
2022/04/18 13:30:39;;;;;;;3.58;1.90;;;13.70;35.20;;;;;;5094750;28;20139;-53
2022/04/18 13:33:06;;;;;;;7.70;3.17;;;13.70;34.80;;;;;;5094819;28;20031;-53
2022/04/18 13:36:30;;;;;;;10.73;3.60;;;13.60;34.90;;;;;;5095096;28;20042;-53